createdAt,value
2022-11-04T00:01:50.587Z,2.92
2022-11-04T00:04:19.970Z,2.40
2022-11-04T00:06:48.098Z,2.80
2022-11-04T00:09:30.653Z,2.70
2022-11-04T00:12:17.096Z,3.05
2022-11-04T00:14:44.492Z,3.22
2022-11-04T00:17:25.255Z,3.08
2022-11-04T00:20:21.479Z,3.55
2022-11-04T00:23:07.805Z,3.05
2022-11-04T00:26:07.751Z,3.30
2022-11-04T00:28:43.716Z,3.58
2022-11-04T00:31:29.502Z,3.30
2022-11-04T00:33:59.283Z,3.75
2022-11-04T00:36:26.918Z,3.23
2022-11-04T00:38:54.518Z,3.38
2022-11-04T00:41:28.327Z,3.92
2022-11-04T00:44:01.935Z,3.35
2022-11-04T00:46:31.773Z,3.65
2022-11-04T00:48:59.666Z,3.58
2022-11-04T00:51:27.143Z,3.20
2022-11-04T00:53:54.787Z,3.50
2022-11-04T00:56:22.096Z,2.90
2022-11-04T00:58:50.321Z,3.35
2022-11-04T01:01:19.524Z,3.35
2022-11-04T01:03:53.187Z,3.00
2022-11-04T01:06:22.895Z,2.72
2022-11-04T01:09:02.519Z,2.93
2022-11-04T01:11:31.399Z,2.35
2022-11-04T01:13:59.130Z,2.63
2022-11-04T01:18:55.427Z,2.60
2022-11-04T01:21:22.598Z,2.40
2022-11-04T01:23:49.798Z,2.45
2022-11-04T01:26:21.226Z,1.85
2022-11-04T01:28:49.475Z,2.00
2022-11-04T01:31:24.300Z,1.98
2022-11-04T01:33:53.739Z,2.00
2022-11-04T01:36:22.128Z,2.00
2022-11-04T01:38:50.411Z,2.38
2022-11-04T01:41:28.800Z,2.13
2022-11-04T01:44:24.230Z,1.90
2022-11-04T01:46:54.068Z,1.77
2022-11-04T01:49:39.166Z,2.33
2022-11-04T01:52:25.990Z,2.15
2022-11-04T01:54:57.606Z,1.98
2022-11-04T01:57:33.542Z,2.08
2022-11-04T02:00:06.317Z,2.17
2022-11-04T02:03:06.343Z,2.60
2022-11-04T02:05:34.307Z,2.10
2022-11-04T02:08:04.716Z,2.00
2022-11-04T02:10:33.366Z,2.30
2022-11-04T02:13:03.737Z,2.00
2022-11-04T02:15:51.979Z,2.30
2022-11-04T02:18:49.244Z,2.55
2022-11-04T02:21:38.032Z,2.65
2022-11-04T02:24:26.332Z,2.58
2022-11-04T02:27:37.038Z,2.38
2022-11-04T02:30:12.403Z,2.50
2022-11-04T02:32:50.380Z,1.95
2022-11-04T02:35:30.793Z,2.50
2022-11-04T02:38:04.057Z,2.40
2022-11-04T02:40:41.656Z,3.15
2022-11-04T02:43:50.293Z,2.03
2022-11-04T02:46:34.680Z,2.17
2022-11-04T02:49:40.555Z,2.00
2022-11-04T02:52:10.563Z,2.50
2022-11-04T02:54:54.957Z,2.03
2022-11-04T02:57:29.030Z,2.70
2022-11-04T03:00:08.729Z,2.15
2022-11-04T03:03:09.884Z,2.00
2022-11-04T03:05:42.470Z,2.45
2022-11-04T03:08:17.404Z,2.88
2022-11-04T03:10:52.790Z,1.95
2022-11-04T03:13:50.255Z,2.47
2022-11-04T03:16:23.900Z,1.95
2022-11-04T03:19:34.704Z,2.35
2022-11-04T03:24:31.907Z,2.63
2022-11-04T03:27:16.562Z,2.78
2022-11-04T03:30:02.429Z,2.70
2022-11-04T03:32:54.629Z,2.65
2022-11-04T03:35:22.004Z,2.25
2022-11-04T03:37:50.224Z,2.20
2022-11-04T03:40:20.996Z,2.10
2022-11-04T03:42:58.767Z,2.70
2022-11-04T03:45:26.992Z,2.50
2022-11-04T03:47:56.104Z,2.65
2022-11-04T03:50:42.078Z,3.08
2022-11-04T03:53:12.448Z,2.67
2022-11-04T03:56:21.636Z,2.47
2022-11-04T03:59:04.697Z,3.03
2022-11-04T04:01:56.134Z,3.22
2022-11-04T04:05:18.846Z,2.97
2022-11-04T04:08:11.946Z,3.55
2022-11-04T04:11:15.758Z,3.33
2022-11-04T04:13:59.476Z,2.70
2022-11-04T04:17:00.529Z,2.70
2022-11-04T04:19:29.215Z,2.42
2022-11-04T04:22:05.156Z,3.05
2022-11-04T04:24:58.636Z,2.60
2022-11-04T04:27:33.672Z,2.78
2022-11-04T04:30:15.933Z,2.67
2022-11-04T04:32:57.890Z,2.88
2022-11-04T04:35:42.522Z,2.70
2022-11-04T04:38:44.461Z,2.97
2022-11-04T04:41:46.575Z,3.42
2022-11-04T04:44:46.629Z,2.10
2022-11-04T04:47:24.880Z,2.83
2022-11-04T04:50:01.120Z,3.20
2022-11-04T04:52:40.207Z,2.88
2022-11-04T04:55:08.805Z,3.10
2022-11-04T04:57:36.338Z,2.92
2022-11-04T05:00:06.706Z,3.05
2022-11-04T05:02:34.411Z,3.28
2022-11-04T05:05:01.886Z,3.20
2022-11-04T05:07:29.134Z,3.40
2022-11-04T05:09:56.572Z,3.28
2022-11-04T05:12:23.965Z,3.50
2022-11-04T05:14:51.149Z,3.67
2022-11-04T05:17:18.346Z,2.90
2022-11-04T05:19:45.651Z,3.00
2022-11-04T05:22:12.846Z,3.05
2022-11-04T05:24:40.028Z,3.38
2022-11-04T05:27:07.236Z,3.47
2022-11-04T05:29:34.498Z,3.13
2022-11-04T05:32:01.871Z,3.72
2022-11-04T05:34:29.261Z,3.58
2022-11-04T05:36:56.466Z,3.13
2022-11-04T05:39:23.689Z,3.40
2022-11-04T05:41:50.832Z,3.10
2022-11-04T05:44:18.055Z,3.15
2022-11-04T05:46:45.249Z,2.78
2022-11-04T05:49:12.570Z,3.22
2022-11-04T05:51:39.845Z,2.83
2022-11-04T05:54:07.055Z,3.72
2022-11-04T05:56:34.262Z,3.85
2022-11-04T05:59:01.600Z,3.97
2022-11-04T06:01:33.441Z,3.28
2022-11-04T06:04:02.090Z,3.20
2022-11-04T06:06:36.896Z,3.35
2022-11-04T06:09:04.448Z,3.28
2022-11-04T06:11:32.972Z,3.53
2022-11-04T06:14:00.710Z,4.25
2022-11-04T06:16:28.303Z,3.53
2022-11-04T06:18:56.867Z,3.65
2022-11-04T06:21:32.503Z,3.90
2022-11-04T06:24:00.884Z,3.20
2022-11-04T06:26:30.961Z,3.45
2022-11-04T06:28:58.505Z,3.35
2022-11-04T06:31:25.995Z,3.75
2022-11-04T06:33:53.323Z,3.15
2022-11-04T06:36:20.552Z,4.13
2022-11-04T06:38:47.793Z,4.30
2022-11-04T06:41:17.706Z,3.58
2022-11-04T06:43:45.521Z,5.00
2022-11-04T06:46:37.229Z,5.28
2022-11-04T06:49:06.934Z,4.65
2022-11-04T06:51:34.576Z,4.00
2022-11-04T06:54:02.067Z,4.32
2022-11-04T06:56:29.335Z,4.55
2022-11-04T06:58:56.893Z,4.25
2022-11-04T07:01:28.963Z,3.90
2022-11-04T07:03:59.702Z,4.70
2022-11-04T07:09:00.918Z,4.32
2022-11-04T07:11:31.564Z,4.03
2022-11-04T07:16:26.840Z,4.75
2022-11-04T07:18:57.056Z,4.00
2022-11-04T07:21:24.464Z,3.88
2022-11-04T07:23:51.731Z,4.85
2022-11-04T07:26:19.547Z,5.20
2022-11-04T07:28:46.731Z,4.00
2022-11-04T07:31:14.839Z,4.60
2022-11-04T07:33:42.372Z,4.35
2022-11-04T07:36:13.184Z,4.40
2022-11-04T07:38:40.619Z,4.88
2022-11-04T07:41:08.453Z,4.28
2022-11-04T07:43:35.843Z,4.30
2022-11-04T07:46:13.143Z,4.78
2022-11-04T07:48:40.525Z,4.38
2022-11-04T07:51:12.798Z,4.20
2022-11-04T07:53:40.380Z,4.60
2022-11-04T07:56:13.725Z,5.35
2022-11-04T07:58:41.826Z,4.78
2022-11-04T08:01:13.616Z,4.57
2022-11-04T08:03:41.274Z,4.57
2022-11-04T08:06:11.602Z,4.82
2022-11-04T08:08:39.316Z,4.90
2022-11-04T08:11:18.136Z,4.88
2022-11-04T08:13:47.098Z,4.82
2022-11-04T08:16:20.462Z,4.85
2022-11-04T08:18:49.410Z,6.03
2022-11-04T08:21:17.633Z,4.40
2022-11-04T08:23:46.297Z,5.13
2022-11-04T08:26:17.955Z,5.60
2022-11-04T08:28:45.897Z,6.45
2022-11-04T08:31:24.319Z,5.65
2022-11-04T08:33:53.278Z,6.10
2022-11-04T08:36:31.097Z,5.32
2022-11-04T08:38:58.850Z,5.93
2022-11-04T08:41:30.945Z,5.25
2022-11-04T08:44:01.030Z,4.68
2022-11-04T08:46:32.220Z,4.45
2022-11-04T08:48:59.524Z,4.55
2022-11-04T08:51:28.379Z,5.22
2022-11-04T08:53:56.481Z,5.80
2022-11-04T08:56:31.191Z,5.35
2022-11-04T08:58:59.923Z,4.93
2022-11-04T09:01:32.795Z,5.10
2022-11-04T09:04:03.426Z,5.28
2022-11-04T09:06:37.997Z,5.07
2022-11-04T09:09:08.283Z,5.25
2022-11-04T09:11:41.116Z,5.60
2022-11-04T09:14:09.091Z,5.60
2022-11-04T09:16:38.401Z,6.05
2022-11-04T09:19:06.038Z,6.88
2022-11-04T09:21:33.543Z,6.13
2022-11-04T09:24:00.827Z,5.32
2022-11-04T09:26:28.548Z,5.80
2022-11-04T09:28:58.857Z,6.55
2022-11-04T09:31:29.406Z,5.63
2022-11-04T09:36:24.553Z,4.75
2022-11-04T09:38:52.752Z,5.22
2022-11-04T09:41:55.789Z,4.60
2022-11-04T09:45:22.945Z,4.55
2022-11-04T09:47:53.157Z,5.13
2022-11-04T09:50:31.563Z,4.93
2022-11-04T09:53:19.699Z,5.25
2022-11-04T09:56:04.078Z,4.88
2022-11-04T09:58:38.105Z,6.07
2022-11-04T10:01:30.628Z,5.80
2022-11-04T10:04:01.510Z,5.30
2022-11-04T10:06:57.992Z,5.25
2022-11-04T10:09:40.007Z,5.43
2022-11-04T10:12:34.421Z,5.63
2022-11-04T10:15:26.732Z,5.47
2022-11-04T10:18:16.158Z,5.13
2022-11-04T10:21:18.849Z,4.63
2022-11-04T10:24:15.174Z,4.97
2022-11-04T10:27:01.219Z,5.15
2022-11-04T10:29:43.094Z,5.05
2022-11-04T10:32:25.877Z,5.45
2022-11-04T10:35:18.735Z,6.03
2022-11-04T10:37:51.448Z,5.40
2022-11-04T10:40:36.650Z,5.65
2022-11-04T10:43:11.164Z,6.22
2022-11-04T10:45:55.903Z,7.32
2022-11-04T10:48:37.053Z,6.30
2022-11-04T10:51:05.672Z,5.90
2022-11-04T10:53:34.034Z,5.72
2022-11-04T10:56:25.401Z,5.65
2022-11-04T10:58:55.277Z,5.47
2022-11-04T11:01:34.107Z,5.70
2022-11-04T11:04:06.201Z,5.75
2022-11-04T11:06:36.853Z,5.95
2022-11-04T11:09:29.681Z,6.15
2022-11-04T11:12:44.695Z,6.88
2022-11-04T11:15:23.871Z,5.95
2022-11-04T11:17:59.827Z,6.03
2022-11-04T11:20:27.350Z,6.05
2022-11-04T11:22:58.199Z,5.50
2022-11-04T11:25:31.082Z,6.40
2022-11-04T11:28:11.670Z,5.82
2022-11-04T11:33:35.672Z,7.07
2022-11-04T11:36:15.316Z,6.80
2022-11-04T11:38:53.898Z,5.60
2022-11-04T11:41:25.565Z,5.80
2022-11-04T11:43:56.004Z,7.80
2022-11-04T11:46:31.435Z,6.07
2022-11-04T11:49:02.915Z,5.85
2022-11-04T11:51:33.743Z,6.20
2022-11-04T11:54:25.458Z,7.63
2022-11-04T11:57:19.637Z,7.78
2022-11-04T12:02:55.374Z,6.07
2022-11-04T12:11:44.909Z,6.50
2022-11-04T12:14:18.490Z,6.30
2022-11-04T12:17:19.267Z,7.40
2022-11-04T12:23:32.003Z,6.95
2022-11-04T12:26:51.281Z,7.60
2022-11-04T12:29:27.462Z,7.65
2022-11-04T12:32:10.320Z,7.50
2022-11-04T12:35:10.204Z,6.72
2022-11-04T12:37:59.311Z,8.38
2022-11-04T12:40:59.387Z,7.65
2022-11-04T12:43:57.499Z,8.03
2022-11-04T12:47:09.478Z,7.93
2022-11-04T12:50:00.812Z,7.32
2022-11-04T12:52:50.810Z,7.90
2022-11-04T12:55:43.883Z,6.93
2022-11-04T12:58:29.025Z,7.40
2022-11-04T13:01:10.961Z,7.75
2022-11-04T13:04:06.715Z,6.90
2022-11-04T13:07:00.745Z,7.10
2022-11-04T13:09:50.946Z,7.65
2022-11-04T13:12:45.721Z,7.32
2022-11-04T13:15:17.996Z,7.28
2022-11-04T13:17:49.381Z,7.97
2022-11-04T13:20:44.956Z,7.07
2022-11-04T13:23:25.035Z,7.38
2022-11-04T13:25:53.817Z,8.18
2022-11-04T13:28:23.044Z,7.03
2022-11-04T13:31:31.689Z,6.15
2022-11-04T13:34:33.585Z,5.90
2022-11-04T13:37:12.947Z,7.05
2022-11-04T13:39:48.977Z,5.80
2022-11-04T13:43:22.273Z,6.32
2022-11-04T13:45:54.013Z,6.38
2022-11-04T13:48:26.792Z,5.88
2022-11-04T13:51:10.425Z,6.13
2022-11-04T13:53:49.071Z,6.95
2022-11-04T13:56:39.633Z,6.82
2022-11-04T13:59:26.865Z,6.90
2022-11-04T14:02:12.532Z,6.05
2022-11-04T14:04:45.509Z,6.05
2022-11-04T14:07:17.914Z,3.30
2022-11-04T14:09:45.044Z,2.88
2022-11-04T14:12:16.957Z,4.03
2022-11-04T14:14:53.606Z,3.80
2022-11-04T14:17:36.013Z,3.60
2022-11-04T14:20:08.465Z,4.03
2022-11-04T14:22:44.446Z,4.53
2022-11-04T14:25:40.543Z,4.43
2022-11-04T14:28:10.774Z,4.15
2022-11-04T14:31:05.079Z,3.80
2022-11-04T14:33:37.948Z,4.47
2022-11-04T14:36:23.856Z,4.25
2022-11-04T14:39:11.874Z,3.70
2022-11-04T14:42:00.055Z,4.03
2022-11-04T14:44:41.732Z,3.50
2022-11-04T14:47:30.998Z,4.20
2022-11-04T14:50:07.777Z,4.15
2022-11-04T14:52:48.372Z,4.97
2022-11-04T14:55:29.746Z,4.57
2022-11-04T14:58:18.625Z,4.45
2022-11-04T15:00:48.904Z,4.10
2022-11-04T15:06:53.542Z,4.82
2022-11-04T15:09:30.769Z,5.07
2022-11-04T15:14:57.517Z,5.30
2022-11-04T15:17:30.187Z,4.72
2022-11-04T15:20:01.581Z,5.90
2022-11-04T15:22:30.547Z,6.03
2022-11-04T15:25:04.308Z,5.82
2022-11-04T15:27:33.661Z,5.72
2022-11-04T15:30:04.146Z,6.82
2022-11-04T15:34:59.923Z,6.15
2022-11-04T15:37:30.934Z,5.13
2022-11-04T15:39:59.166Z,5.78
2022-11-04T15:42:37.093Z,5.90
2022-11-04T15:45:39.209Z,4.68
2022-11-04T15:48:25.060Z,4.45
2022-11-04T15:51:22.257Z,4.57
2022-11-04T15:54:30.719Z,4.18
2022-11-04T15:57:03.014Z,4.15
2022-11-04T15:59:34.626Z,4.32
2022-11-04T16:02:05.800Z,4.20
2022-11-04T16:04:34.010Z,4.10
2022-11-04T16:07:21.982Z,4.18
2022-11-04T16:09:54.254Z,3.80
2022-11-04T16:12:27.027Z,4.25
2022-11-04T16:14:57.572Z,4.25
2022-11-04T16:20:02.038Z,4.82
2022-11-04T16:22:40.701Z,5.15
2022-11-04T16:25:19.887Z,5.13
2022-11-04T16:27:47.436Z,6.18
2022-11-04T16:30:22.990Z,9.23
2022-11-04T16:32:55.255Z,7.03
2022-11-04T16:35:28.268Z,5.68
2022-11-04T16:37:56.709Z,5.25
2022-11-04T16:40:25.238Z,5.03
2022-11-04T16:42:53.927Z,5.93
2022-11-04T16:45:30.282Z,5.78
2022-11-04T16:47:58.908Z,6.03
2022-11-04T16:50:27.303Z,4.63
2022-11-04T16:52:54.938Z,5.63
2022-11-04T16:55:23.657Z,5.38
2022-11-04T16:58:00.902Z,5.25
2022-11-04T17:00:32.996Z,4.93
2022-11-04T17:03:21.714Z,5.15
2022-11-04T17:05:56.548Z,5.00
2022-11-04T17:08:27.894Z,5.45
2022-11-04T17:10:55.145Z,4.53
2022-11-04T17:13:22.539Z,4.90
2022-11-04T17:15:49.902Z,5.82
2022-11-04T17:18:18.908Z,5.70
2022-11-04T17:20:50.011Z,6.82
2022-11-04T17:23:18.715Z,6.45
2022-11-04T17:25:47.900Z,4.95
2022-11-04T17:28:15.526Z,6.38
2022-11-04T17:30:44.225Z,6.38
2022-11-04T17:33:19.176Z,6.53
2022-11-04T17:35:49.580Z,6.22
2022-11-04T17:38:18.446Z,6.38
2022-11-04T17:41:04.788Z,5.47
2022-11-04T17:43:52.421Z,6.05
2022-11-04T17:46:35.203Z,6.10
2022-11-04T17:49:11.610Z,6.30
2022-11-04T17:51:41.456Z,6.22
2022-11-04T17:54:09.640Z,6.40
2022-11-04T17:56:38.535Z,6.88
2022-11-04T17:59:06.420Z,5.78
2022-11-04T18:01:35.621Z,6.88
2022-11-04T18:04:03.669Z,6.45
2022-11-04T18:06:33.676Z,5.90
2022-11-04T18:09:01.834Z,6.25
2022-11-04T18:11:48.897Z,5.97
2022-11-04T18:14:17.824Z,5.70
2022-11-04T18:16:48.302Z,7.88
2022-11-04T18:19:18.397Z,7.45
2022-11-04T18:21:46.422Z,6.82
2022-11-04T18:24:14.895Z,7.32
2022-11-04T18:26:42.946Z,7.70
2022-11-04T18:29:10.365Z,8.80
2022-11-04T18:31:44.632Z,8.60
2022-11-04T18:34:19.515Z,8.30
2022-11-04T18:36:49.002Z,9.05
2022-11-04T18:39:18.877Z,9.35
2022-11-04T18:41:46.952Z,10.00
2022-11-04T18:44:21.253Z,9.25
2022-11-04T18:46:49.933Z,6.95
2022-11-04T18:49:18.335Z,7.20
2022-11-04T18:51:45.751Z,8.07
2022-11-04T18:54:14.865Z,7.68
2022-11-04T18:56:42.871Z,8.27
2022-11-04T18:59:15.551Z,7.88
2022-11-04T19:01:43.955Z,8.52
2022-11-04T19:04:13.176Z,8.60
2022-11-04T19:06:43.226Z,9.07
2022-11-04T19:09:44.829Z,8.50
2022-11-04T19:12:19.604Z,7.57
2022-11-04T19:14:46.835Z,8.73
2022-11-04T19:17:14.161Z,8.35
2022-11-04T19:19:41.740Z,8.30
2022-11-04T19:22:09.624Z,7.28
2022-11-04T19:24:37.036Z,4.90
2022-11-04T19:27:04.610Z,3.00
2022-11-04T19:29:33.112Z,3.15
2022-11-04T19:32:00.870Z,2.85
2022-11-04T19:34:28.472Z,2.35
2022-11-04T19:36:55.862Z,1.77
2022-11-04T19:39:23.332Z,1.75
2022-11-04T19:42:09.475Z,2.30
2022-11-04T19:44:36.875Z,2.00
2022-11-04T19:47:04.207Z,2.10
2022-11-04T19:49:31.694Z,1.55
2022-11-04T19:52:00.075Z,2.17
2022-11-04T19:54:28.514Z,1.50
2022-11-04T19:56:55.994Z,1.55
2022-11-04T19:59:23.199Z,1.88
2022-11-04T20:01:50.817Z,1.70
2022-11-04T20:04:18.530Z,1.80
2022-11-04T20:06:45.841Z,1.50
2022-11-04T20:09:13.534Z,1.88
2022-11-04T20:12:00.397Z,1.33
2022-11-04T20:14:28.939Z,1.58
2022-11-04T20:16:56.650Z,1.65
2022-11-04T20:19:23.977Z,1.17
2022-11-04T20:21:51.388Z,1.92
2022-11-04T20:24:19.210Z,1.60
2022-11-04T20:26:47.642Z,1.63
2022-11-04T20:29:17.938Z,2.10
2022-11-04T20:31:45.652Z,1.60
2022-11-04T20:34:15.052Z,2.00
2022-11-04T20:36:42.806Z,2.15
2022-11-04T20:39:17.573Z,2.15
2022-11-04T20:41:46.310Z,1.80
2022-11-04T20:44:15.809Z,2.03
2022-11-04T20:46:44.405Z,2.00
2022-11-04T20:49:12.383Z,1.85
2022-11-04T20:51:48.770Z,2.25
2022-11-04T20:54:18.129Z,2.67
2022-11-04T20:56:45.715Z,1.95
2022-11-04T20:59:14.157Z,2.13
2022-11-04T21:01:45.152Z,2.03
2022-11-04T21:04:18.275Z,2.35
2022-11-04T21:06:49.662Z,1.70
2022-11-04T21:09:20.093Z,2.38
2022-11-04T21:11:48.141Z,2.83
2022-11-04T21:14:19.433Z,2.60
2022-11-04T21:16:47.610Z,3.45
2022-11-04T21:19:16.290Z,2.83
2022-11-04T21:21:44.899Z,3.13
2022-11-04T21:24:14.897Z,5.45
2022-11-04T21:26:42.751Z,6.57
2022-11-04T21:29:14.889Z,6.93
2022-11-04T21:31:43.082Z,7.03
2022-11-04T21:34:10.875Z,7.50
2022-11-04T21:36:38.471Z,6.20
2022-11-04T21:39:06.589Z,5.88
2022-11-04T21:41:37.129Z,5.68
2022-11-04T21:44:08.685Z,5.95
2022-11-04T21:46:36.715Z,4.53
2022-11-04T21:49:04.574Z,5.75
2022-11-04T21:51:34.565Z,5.95
2022-11-04T21:54:06.846Z,5.25
2022-11-04T21:56:35.045Z,4.82
2022-11-04T21:59:03.398Z,4.00
2022-11-04T22:01:32.632Z,3.90
2022-11-04T22:04:02.262Z,7.25
2022-11-04T22:06:34.525Z,8.52
2022-11-04T22:09:05.432Z,6.93
2022-11-04T22:11:37.327Z,6.32
2022-11-04T22:14:08.237Z,4.07
2022-11-04T22:16:39.040Z,4.78
2022-11-04T22:19:10.418Z,4.78
2022-11-04T22:21:41.244Z,4.47
2022-11-04T22:24:17.902Z,2.50
2022-11-04T22:26:46.170Z,1.95
2022-11-04T22:29:13.442Z,2.30
2022-11-04T22:31:43.174Z,1.30
2022-11-04T22:34:10.562Z,1.50
2022-11-04T22:36:38.356Z,1.20
2022-11-04T22:39:05.783Z,1.23
2022-11-04T22:41:35.661Z,0.90
2022-11-04T22:44:03.625Z,0.85
2022-11-04T22:46:33.797Z,0.90
2022-11-04T22:49:01.440Z,0.80
2022-11-04T22:51:31.331Z,1.30
2022-11-04T22:54:04.571Z,1.08
2022-11-04T22:56:34.173Z,0.88
2022-11-04T22:59:01.527Z,0.80
2022-11-04T23:01:29.371Z,0.68
2022-11-04T23:03:57.735Z,0.80
2022-11-04T23:06:25.144Z,0.65
2022-11-04T23:08:59.534Z,0.77
2022-11-04T23:11:47.354Z,0.70
2022-11-04T23:14:36.216Z,0.73
2022-11-04T23:17:37.815Z,0.90
2022-11-04T23:20:09.451Z,0.55
2022-11-04T23:22:55.393Z,0.57
2022-11-04T23:25:23.214Z,0.60
2022-11-04T23:28:12.868Z,0.60
2022-11-04T23:30:46.515Z,0.83
2022-11-04T23:33:15.739Z,0.70
2022-11-04T23:36:07.674Z,0.50
2022-11-04T23:38:38.415Z,0.68
2022-11-04T23:43:53.005Z,1.00
2022-11-04T23:46:43.113Z,0.98
2022-11-04T23:49:30.791Z,1.50
2022-11-04T23:52:16.595Z,1.63
2022-11-04T23:55:02.521Z,1.50
2022-11-04T23:57:48.647Z,1.60
